Saturday, August 18, 2018, 1:59 PM GMT
Back to Local

CWQV, Puinte Claveau

Location: , , Canada Lat: 48.267
Local Time: 1:59 PM GMT (13:59 GMT) Lon: -70.117
Time Zone: GMT Elev: 0 ft

Show me the last for .
Show Coded

Time T Td Feel RH Dir Speed Gust Alt SLP Vis Weather Sky Remarks
2018-08-18 13:00 62 - - 0 270° 14 - - - 0 None
2018-08-18 12:00 60 - - 0 280° 13 - - - 0 None
2018-08-18 11:00 58 - - 0 280° 12 - - - 0 None
2018-08-18 10:00 57 - - 0 290° 9 - - - 0 None
2018-08-18 09:00 57 - - 0 290° 8 - - - 0 None
2018-08-18 08:00 58 - - 0 280° 10 - - - 0 None
2018-08-18 07:00 58 - - 0 290° 5 - - - 0 None
2018-08-18 06:00 58 - - 0 290° 2 - - - 0 None
2018-08-18 05:00 59 - - 0 330° 1 - - - 0 None
2018-08-18 04:00 59 - - 0 - Calm - - - 0 None
2018-08-18 03:00 59 - - 0 330° 2 - - - 0 None
2018-08-18 02:00 62 - - 0 310° 3 - - - 0 None
2018-08-18 01:00 65 - - 0 290° 6 - - - 0 None
2018-08-18 00:00 67 - - 0 290° 7 - - - 0 None
2018-08-17 23:00 66 - - 0 280° 6 - - - 0 None
2018-08-17 22:00 67 - - 0 270° 3 - - - 0 None
2018-08-17 21:00 70 - - 0 280° 5 - - - 0 None
2018-08-17 20:00 72 - - 0 90° 9 - - - 0 None
2018-08-17 19:00 72 - - 0 80° 14 - - - 0 None
2018-08-17 18:00 69 - - 0 90° 5 - - - 0 None
2018-08-17 17:00 66 - - 0 100° 3 - - - 0 None
2018-08-17 16:00 64 - - 0 100° 2 - - - 0 None
2018-08-17 15:00 60 - - 0 90° 2 - - - 0 None
2018-08-17 14:00 57 - - 0 100° 3 - - - 0 None

Support USWX by starting your Amazon purchase here.